createdAt,value
2023-04-15T00:01:53.371Z,8.27
2023-04-15T00:04:21.004Z,8.09
2023-04-15T00:06:54.060Z,8.04
2023-04-15T00:09:21.638Z,8.15
2023-04-15T00:11:48.745Z,8.20
2023-04-15T00:14:15.873Z,8.00
2023-04-15T00:16:44.916Z,8.08
2023-04-15T00:19:12.399Z,8.15
2023-04-15T00:21:39.452Z,7.86
2023-04-15T00:24:06.647Z,8.06
2023-04-15T00:26:33.493Z,8.02
2023-04-15T00:29:00.575Z,8.13
2023-04-15T00:31:27.831Z,8.07
2023-04-15T00:33:54.729Z,8.09
2023-04-15T00:36:21.648Z,8.13
2023-04-15T00:38:48.477Z,8.03
2023-04-15T00:41:15.325Z,7.95
2023-04-15T00:43:42.460Z,8.18
2023-04-15T00:46:10.752Z,8.05
2023-04-15T00:48:39.135Z,8.12
2023-04-15T00:51:07.448Z,8.09
2023-04-15T00:53:34.363Z,8.06
2023-04-15T00:56:01.146Z,7.99
2023-04-15T00:58:28.359Z,8.03
2023-04-15T01:00:56.619Z,8.04
2023-04-15T01:03:23.997Z,7.95
2023-04-15T01:05:51.769Z,8.07
2023-04-15T01:08:18.970Z,8.18
2023-04-15T01:10:45.989Z,8.23
2023-04-15T01:13:13.058Z,8.15
2023-04-15T01:15:40.586Z,8.08
2023-04-15T01:18:09.475Z,8.12
2023-04-15T01:20:36.580Z,8.11
2023-04-15T01:23:03.623Z,8.07
2023-04-15T01:25:34.297Z,8.10
2023-04-15T01:28:04.301Z,8.02
2023-04-15T01:30:34.979Z,7.83
2023-04-15T01:33:02.098Z,7.83
2023-04-15T01:35:29.009Z,7.84
2023-04-15T01:38:02.695Z,7.87
2023-04-15T01:40:29.649Z,7.92
2023-04-15T01:42:56.776Z,7.79
2023-04-15T01:45:23.763Z,7.81
2023-04-15T01:47:50.870Z,7.68
2023-04-15T01:50:17.797Z,7.75
2023-04-15T01:52:44.885Z,7.80
2023-04-15T01:55:11.717Z,7.85
2023-04-15T01:57:38.454Z,7.61
2023-04-15T02:00:07.890Z,7.70
2023-04-15T02:02:34.868Z,7.90
2023-04-15T02:05:01.928Z,7.74
2023-04-15T02:07:32.656Z,7.79
2023-04-15T02:09:59.529Z,7.70
2023-04-15T02:12:27.481Z,7.75
2023-04-15T02:14:54.568Z,7.85
2023-04-15T02:17:21.433Z,7.77
2023-04-15T02:19:48.390Z,7.95
2023-04-15T02:22:19.050Z,7.82
2023-04-15T02:24:49.044Z,7.88
2023-04-15T02:27:17.376Z,7.92
2023-04-15T02:29:46.042Z,7.88
2023-04-15T02:32:13.816Z,7.75
2023-04-15T02:34:42.817Z,7.73
2023-04-15T02:37:11.602Z,7.75
2023-04-15T02:39:38.482Z,7.65
2023-04-15T02:42:06.342Z,7.56
2023-04-15T02:44:34.283Z,7.91
2023-04-15T02:47:01.256Z,8.01
2023-04-15T02:49:30.037Z,7.84
2023-04-15T02:51:58.476Z,7.99
2023-04-15T02:54:25.924Z,7.86
2023-04-15T02:56:55.550Z,7.97
2023-04-15T02:59:22.514Z,7.79
2023-04-15T03:01:49.683Z,7.86
2023-04-15T03:04:17.011Z,7.84
2023-04-15T03:06:44.205Z,8.02
2023-04-15T03:09:11.282Z,7.90
2023-04-15T03:11:40.955Z,7.74
2023-04-15T03:14:07.942Z,7.81
2023-04-15T03:16:34.768Z,7.78
2023-04-15T03:19:02.013Z,7.70
2023-04-15T03:21:29.046Z,7.76
2023-04-15T03:23:56.769Z,7.81
2023-04-15T03:26:31.881Z,7.89
2023-04-15T03:28:59.401Z,7.84
2023-04-15T03:31:26.769Z,7.81
2023-04-15T03:33:53.723Z,7.84
2023-04-15T03:36:23.270Z,7.93
2023-04-15T03:38:50.467Z,7.78
2023-04-15T03:41:17.732Z,7.77
2023-04-15T03:43:44.636Z,8.03
2023-04-15T03:46:11.623Z,8.01
2023-04-15T03:48:38.613Z,7.80
2023-04-15T03:51:05.610Z,7.90
2023-04-15T03:53:32.409Z,7.89
2023-04-15T03:55:59.309Z,7.96
2023-04-15T03:58:26.225Z,7.89
2023-04-15T04:00:53.378Z,7.68
2023-04-15T04:03:20.653Z,8.03
2023-04-15T04:05:47.820Z,8.01
2023-04-15T04:08:16.520Z,8.04
2023-04-15T04:10:44.606Z,7.92
2023-04-15T04:13:11.743Z,7.84
2023-04-15T04:15:38.663Z,7.86
2023-04-15T04:18:05.623Z,7.46
2023-04-15T04:20:32.673Z,7.96
2023-04-15T04:22:59.549Z,7.98
2023-04-15T04:25:26.523Z,7.83
2023-04-15T04:27:53.662Z,7.97
2023-04-15T04:30:20.809Z,7.88
2023-04-15T04:32:50.249Z,7.72
2023-04-15T04:35:18.312Z,8.01
2023-04-15T04:37:45.188Z,7.97
2023-04-15T04:40:12.619Z,7.79
2023-04-15T04:42:40.109Z,7.84
2023-04-15T04:45:07.730Z,7.92
2023-04-15T04:47:34.716Z,7.93
2023-04-15T04:50:01.676Z,7.96
2023-04-15T04:52:29.915Z,7.92
2023-04-15T04:54:56.922Z,7.94
2023-04-15T04:57:23.807Z,7.84
2023-04-15T04:59:50.552Z,8.14
2023-04-15T05:02:17.556Z,8.05
2023-04-15T05:04:44.459Z,8.02
2023-04-15T05:07:11.681Z,8.07
2023-04-15T05:09:38.956Z,8.10
2023-04-15T05:12:06.242Z,8.20
2023-04-15T05:14:33.513Z,8.16
2023-04-15T05:17:01.933Z,8.31
2023-04-15T05:19:32.008Z,8.11
2023-04-15T05:21:58.847Z,8.06
2023-04-15T05:24:25.693Z,8.07
2023-04-15T05:26:52.737Z,8.11
2023-04-15T05:29:19.691Z,8.30
2023-04-15T05:31:46.971Z,8.32
2023-04-15T05:34:16.082Z,8.36
2023-04-15T05:36:43.280Z,8.23
2023-04-15T05:39:10.155Z,8.24
2023-04-15T05:41:37.005Z,8.27
2023-04-15T05:44:03.885Z,8.44
2023-04-15T05:46:31.082Z,8.46
2023-04-15T05:49:01.304Z,8.36
2023-04-15T05:51:28.714Z,8.13
2023-04-15T05:53:55.927Z,8.45
2023-04-15T05:56:22.791Z,8.55
2023-04-15T05:58:50.522Z,8.41
2023-04-15T06:01:18.291Z,8.28
2023-04-15T06:03:45.341Z,8.38
2023-04-15T06:06:12.346Z,8.67
2023-04-15T06:08:39.234Z,8.72
2023-04-15T06:11:06.218Z,8.70
2023-04-15T06:13:33.233Z,8.73
2023-04-15T06:16:00.435Z,8.69
2023-04-15T06:18:27.370Z,8.88
2023-04-15T06:20:54.186Z,8.99
2023-04-15T06:23:21.678Z,8.75
2023-04-15T06:25:51.801Z,8.60
2023-04-15T06:28:18.671Z,8.50
2023-04-15T06:30:45.607Z,8.71
2023-04-15T06:33:12.770Z,8.81
2023-04-15T06:35:39.716Z,8.73
2023-04-15T06:38:06.699Z,8.63
2023-04-15T06:40:34.122Z,8.84
2023-04-15T06:43:01.148Z,8.93
2023-04-15T06:45:28.181Z,8.89
2023-04-15T06:47:55.050Z,8.88
2023-04-15T06:50:22.097Z,8.76
2023-04-15T06:52:49.241Z,8.88
2023-04-15T06:55:16.389Z,9.09
2023-04-15T06:57:43.312Z,9.20
2023-04-15T07:00:12.336Z,9.12
2023-04-15T07:02:39.506Z,8.73
2023-04-15T07:05:07.615Z,8.92
2023-04-15T07:07:34.505Z,8.78
2023-04-15T07:10:02.326Z,8.72
2023-04-15T07:12:29.327Z,8.83
2023-04-15T07:14:56.579Z,8.84
2023-04-15T07:17:23.288Z,8.78
2023-04-15T07:19:50.075Z,9.02
2023-04-15T07:22:17.025Z,9.04
2023-04-15T07:24:44.135Z,9.15
2023-04-15T07:27:11.116Z,9.25
2023-04-15T07:29:38.152Z,9.20
2023-04-15T07:32:05.439Z,9.25
2023-04-15T07:34:32.682Z,9.28
2023-04-15T07:36:59.686Z,9.32
2023-04-15T07:39:26.838Z,9.63
2023-04-15T07:41:53.663Z,9.68
2023-04-15T07:44:20.723Z,9.67
2023-04-15T07:46:48.378Z,9.72
2023-04-15T07:49:16.973Z,9.84
2023-04-15T07:51:44.678Z,10.07
2023-04-15T07:54:11.945Z,9.79
2023-04-15T07:56:38.975Z,9.66
2023-04-15T07:59:06.744Z,9.57
2023-04-15T08:01:33.910Z,9.66
2023-04-15T08:04:01.055Z,9.58
2023-04-15T08:06:28.017Z,9.36
2023-04-15T08:08:55.500Z,9.29
2023-04-15T08:11:23.589Z,9.14
2023-04-15T08:13:50.606Z,9.46
2023-04-15T08:16:23.082Z,9.58
2023-04-15T08:18:51.786Z,9.58
2023-04-15T08:21:20.547Z,9.78
2023-04-15T08:23:50.410Z,9.94
2023-04-15T08:26:18.078Z,9.97
2023-04-15T08:28:46.825Z,9.79
2023-04-15T08:31:15.848Z,9.79
2023-04-15T08:33:43.306Z,9.68
2023-04-15T08:36:10.758Z,9.44
2023-04-15T08:38:37.928Z,9.84
2023-04-15T08:41:13.026Z,10.08
2023-04-15T08:43:51.992Z,10.19
2023-04-15T08:46:19.905Z,10.08
2023-04-15T08:48:48.312Z,10.08
2023-04-15T08:51:16.598Z,10.04
2023-04-15T08:53:45.158Z,9.99
2023-04-15T08:56:14.487Z,10.08
2023-04-15T08:58:41.938Z,10.01
2023-04-15T09:01:08.969Z,10.13
2023-04-15T09:03:37.113Z,10.20
2023-04-15T09:06:06.177Z,10.40
2023-04-15T09:08:35.197Z,10.74
2023-04-15T09:11:05.831Z,10.81
2023-04-15T09:13:32.704Z,10.84
2023-04-15T09:16:04.155Z,10.82
2023-04-15T09:18:34.063Z,11.18
2023-04-15T09:21:09.288Z,11.04
2023-04-15T09:23:37.367Z,10.76
2023-04-15T09:26:05.410Z,10.96
2023-04-15T09:28:32.417Z,11.26
2023-04-15T09:31:00.635Z,11.48
2023-04-15T09:33:29.382Z,11.66
2023-04-15T09:36:04.809Z,11.85
2023-04-15T09:38:32.675Z,11.76
2023-04-15T09:41:00.259Z,12.05
2023-04-15T09:43:40.915Z,11.83
2023-04-15T09:46:07.992Z,11.97
2023-04-15T09:48:34.786Z,12.18
2023-04-15T09:51:02.407Z,12.09
2023-04-15T09:53:31.768Z,12.28
2023-04-15T09:56:03.433Z,12.47
2023-04-15T09:58:33.856Z,12.34
2023-04-15T10:01:03.351Z,12.11
2023-04-15T10:03:32.575Z,12.61
2023-04-15T10:06:01.070Z,12.86
2023-04-15T10:08:30.305Z,13.23
2023-04-15T10:10:58.004Z,13.74
2023-04-15T10:13:33.079Z,13.36
2023-04-15T10:16:12.121Z,13.54
2023-04-15T10:18:44.310Z,13.84
2023-04-15T10:21:14.203Z,13.65
2023-04-15T10:23:44.662Z,14.02
2023-04-15T10:26:13.032Z,14.89
2023-04-15T10:28:40.161Z,14.86
2023-04-15T10:31:07.916Z,15.17
2023-04-15T10:33:36.017Z,15.78
2023-04-15T10:36:03.246Z,16.68
2023-04-15T10:38:36.098Z,17.35
2023-04-15T10:41:34.892Z,16.77
2023-04-15T10:44:04.942Z,15.97
2023-04-15T10:46:39.501Z,15.60
2023-04-15T10:49:14.150Z,15.42
2023-04-15T10:51:43.409Z,15.89
2023-04-15T10:54:30.509Z,16.88
2023-04-15T10:57:06.861Z,17.37
2023-04-15T10:59:37.344Z,17.64
2023-04-15T11:02:06.926Z,17.35
2023-04-15T11:04:52.241Z,17.52
2023-04-15T11:07:47.416Z,17.97
2023-04-15T11:10:14.403Z,18.13
2023-04-15T11:12:42.213Z,18.42
2023-04-15T11:15:36.623Z,18.94
2023-04-15T11:18:20.306Z,19.53
2023-04-15T11:20:50.750Z,19.92
2023-04-15T11:23:32.326Z,21.10
2023-04-15T11:26:01.123Z,23.56
2023-04-15T11:28:29.616Z,23.73
2023-04-15T11:30:57.103Z,21.83
2023-04-15T11:33:24.848Z,20.07
2023-04-15T11:35:55.027Z,19.42
2023-04-15T11:38:22.693Z,19.06
2023-04-15T11:40:51.533Z,18.75
2023-04-15T11:43:23.581Z,19.12
2023-04-15T11:45:58.405Z,19.34
2023-04-15T11:48:30.986Z,19.34
2023-04-15T11:51:07.944Z,19.42
2023-04-15T11:53:43.658Z,19.55
2023-04-15T11:56:21.315Z,18.54
2023-04-15T11:58:51.075Z,17.64
2023-04-15T12:01:18.879Z,16.94
2023-04-15T12:03:49.934Z,17.06
2023-04-15T12:06:19.727Z,17.15
2023-04-15T12:08:56.793Z,16.59
2023-04-15T12:11:26.700Z,16.62
2023-04-15T12:14:06.137Z,16.39
2023-04-15T12:16:48.403Z,16.31
2023-04-15T12:19:30.238Z,16.83
2023-04-15T12:22:04.335Z,16.74
2023-04-15T12:24:36.060Z,16.24
2023-04-15T12:27:10.050Z,16.50
2023-04-15T12:29:39.012Z,16.34
2023-04-15T12:32:08.553Z,15.67
2023-04-15T12:34:37.611Z,16.01
2023-04-15T12:37:06.545Z,16.35
2023-04-15T12:39:36.776Z,16.90
2023-04-15T12:42:04.741Z,17.24
2023-04-15T12:44:32.005Z,16.99
2023-04-15T12:47:00.240Z,16.65
2023-04-15T12:49:28.069Z,16.83
2023-04-15T12:51:57.420Z,17.49
2023-04-15T12:54:24.480Z,17.68
2023-04-15T12:56:51.858Z,17.83
2023-04-15T12:59:18.872Z,18.20
2023-04-15T13:01:47.754Z,18.30
2023-04-15T13:04:16.591Z,17.67
2023-04-15T13:06:44.371Z,17.56
2023-04-15T13:09:11.291Z,17.22
2023-04-15T13:11:38.223Z,17.00
2023-04-15T13:14:07.465Z,17.24
2023-04-15T13:16:35.224Z,16.88
2023-04-15T13:19:03.851Z,17.03
2023-04-15T13:21:32.381Z,17.68
2023-04-15T13:23:59.916Z,18.56
2023-04-15T13:26:26.821Z,19.18
2023-04-15T13:28:53.972Z,19.36
2023-04-15T13:31:21.318Z,19.54
2023-04-15T13:33:48.219Z,18.96
2023-04-15T13:36:15.044Z,18.74
2023-04-15T13:38:41.993Z,18.58
2023-04-15T13:41:08.750Z,18.61
2023-04-15T13:43:36.069Z,17.92
2023-04-15T13:46:02.972Z,16.87
2023-04-15T13:48:29.872Z,16.78
2023-04-15T13:50:56.794Z,17.14
2023-04-15T13:53:33.838Z,17.25
2023-04-15T13:56:09.266Z,17.51
2023-04-15T13:58:36.954Z,17.64
2023-04-15T14:01:05.746Z,17.22
2023-04-15T14:03:34.029Z,16.47
2023-04-15T14:06:01.318Z,16.43
2023-04-15T14:08:28.232Z,16.04
2023-04-15T14:10:55.107Z,15.81
2023-04-15T14:13:22.088Z,16.68
2023-04-15T14:15:49.016Z,17.22
2023-04-15T14:18:15.903Z,16.99
2023-04-15T14:20:42.949Z,16.55
2023-04-15T14:23:10.108Z,17.17
2023-04-15T14:25:39.411Z,17.76
2023-04-15T14:28:06.488Z,18.01
2023-04-15T14:30:33.578Z,17.09
2023-04-15T14:33:00.662Z,16.42
2023-04-15T14:35:27.967Z,16.19
2023-04-15T14:37:55.554Z,16.59
2023-04-15T14:40:23.025Z,16.75
2023-04-15T14:42:50.003Z,16.55
2023-04-15T14:45:17.940Z,16.71
2023-04-15T14:47:45.323Z,17.05
2023-04-15T14:50:12.506Z,16.92
2023-04-15T14:52:39.672Z,16.71
2023-04-15T14:55:12.434Z,16.70
2023-04-15T14:57:40.885Z,16.51
2023-04-15T15:00:10.126Z,16.90
2023-04-15T15:02:40.300Z,16.80
2023-04-15T15:05:08.742Z,16.65
2023-04-15T15:07:37.453Z,16.13
2023-04-15T15:10:05.551Z,15.89
2023-04-15T15:12:33.304Z,15.93
2023-04-15T15:15:01.622Z,15.92
2023-04-15T15:17:30.174Z,15.66
2023-04-15T15:19:57.616Z,15.95
2023-04-15T15:22:26.008Z,15.97
2023-04-15T15:24:53.699Z,16.17
2023-04-15T15:27:20.844Z,16.14
2023-04-15T15:29:47.917Z,16.01
2023-04-15T15:32:14.821Z,15.76
2023-04-15T15:34:41.713Z,15.68
2023-04-15T15:37:08.645Z,15.49
2023-04-15T15:39:36.092Z,15.35
2023-04-15T15:42:03.166Z,15.68
2023-04-15T15:44:30.029Z,15.69
2023-04-15T15:46:57.025Z,15.43
2023-04-15T15:49:25.604Z,15.18
2023-04-15T15:51:52.688Z,15.04
2023-04-15T15:54:19.565Z,14.89
2023-04-15T15:56:46.550Z,14.96
2023-04-15T15:59:13.485Z,14.66
2023-04-15T16:01:40.603Z,14.41
2023-04-15T16:04:07.969Z,14.26
2023-04-15T16:06:35.368Z,14.43
2023-04-15T16:09:02.946Z,14.32
2023-04-15T16:11:30.494Z,14.30
2023-04-15T16:13:57.479Z,14.03
2023-04-15T16:16:24.643Z,14.01
2023-04-15T16:18:51.699Z,13.81
2023-04-15T16:21:19.785Z,13.47
2023-04-15T16:23:46.785Z,13.48
2023-04-15T16:26:13.764Z,13.53
2023-04-15T16:28:40.851Z,13.54
2023-04-15T16:31:07.863Z,13.66
2023-04-15T16:33:34.952Z,13.32
2023-04-15T16:36:01.969Z,13.24
2023-04-15T16:38:28.807Z,13.19
2023-04-15T16:40:59.964Z,13.09
2023-04-15T16:43:27.297Z,13.10
2023-04-15T16:45:54.461Z,13.00
2023-04-15T16:48:21.651Z,12.92
2023-04-15T16:50:49.473Z,13.01
2023-04-15T16:53:16.650Z,13.00
2023-04-15T16:55:43.755Z,12.91
2023-04-15T16:58:10.563Z,12.84
2023-04-15T17:00:37.646Z,12.88
2023-04-15T17:03:06.085Z,12.72
2023-04-15T17:05:33.433Z,13.01
2023-04-15T17:08:00.433Z,12.88
2023-04-15T17:10:28.007Z,12.87
2023-04-15T17:12:58.394Z,12.84
2023-04-15T17:15:26.333Z,12.69
2023-04-15T17:17:53.399Z,12.76
2023-04-15T17:20:20.483Z,13.02
2023-04-15T17:22:48.315Z,13.00
2023-04-15T17:25:15.402Z,13.07
2023-04-15T17:27:42.484Z,13.02
2023-04-15T17:30:09.900Z,12.72
2023-04-15T17:32:37.519Z,12.79
2023-04-15T17:35:06.653Z,12.64
2023-04-15T17:37:34.514Z,12.68
2023-04-15T17:40:01.621Z,12.37
2023-04-15T17:42:28.910Z,12.32
2023-04-15T17:44:55.836Z,12.50
2023-04-15T17:47:22.697Z,12.33
2023-04-15T17:49:49.665Z,12.31
2023-04-15T17:52:16.678Z,12.32
2023-04-15T17:54:43.667Z,12.32
2023-04-15T17:57:10.879Z,12.40
2023-04-15T17:59:37.693Z,12.30
2023-04-15T18:02:04.586Z,12.10
2023-04-15T18:04:31.945Z,12.17
2023-04-15T18:06:58.954Z,12.35
2023-04-15T18:09:25.988Z,12.41
2023-04-15T18:11:53.027Z,12.24
2023-04-15T18:14:31.104Z,12.25
2023-04-15T18:17:00.833Z,12.05
2023-04-15T18:19:30.549Z,11.95
2023-04-15T18:22:00.758Z,12.01
2023-04-15T18:24:28.340Z,11.87
2023-04-15T18:26:56.770Z,11.90
2023-04-15T18:29:23.864Z,11.57
2023-04-15T18:31:51.362Z,11.52
2023-04-15T18:34:18.567Z,11.62
2023-04-15T18:36:46.516Z,11.50
2023-04-15T18:39:13.680Z,11.40
2023-04-15T18:41:40.728Z,11.54
2023-04-15T18:44:07.648Z,11.48
2023-04-15T18:46:34.517Z,11.38
2023-04-15T18:49:01.618Z,11.30
2023-04-15T18:51:28.682Z,11.04
2023-04-15T18:53:55.940Z,10.99
2023-04-15T18:56:23.014Z,11.08
2023-04-15T18:59:27.476Z,11.01
2023-04-15T19:01:36.973Z,11.05
2023-04-15T19:04:04.038Z,11.07
2023-04-15T19:06:31.312Z,10.88
2023-04-15T19:08:59.551Z,10.75
2023-04-15T19:11:26.631Z,10.90
2023-04-15T19:13:53.786Z,10.79
2023-04-15T19:16:21.300Z,10.57
2023-04-15T19:18:48.297Z,10.44
2023-04-15T19:21:16.071Z,10.38
2023-04-15T19:23:43.469Z,10.34
2023-04-15T19:26:12.004Z,10.41
2023-04-15T19:28:39.461Z,10.31
2023-04-15T19:31:06.900Z,10.46
2023-04-15T19:33:34.386Z,10.45
2023-04-15T19:36:04.385Z,10.65
2023-04-15T19:38:35.255Z,10.72
2023-04-15T19:41:02.319Z,10.84
2023-04-15T19:43:30.378Z,10.94
2023-04-15T19:45:57.203Z,11.13
2023-04-15T19:48:25.186Z,11.06
2023-04-15T19:50:52.212Z,11.18
2023-04-15T19:53:19.193Z,10.96
2023-04-15T19:55:47.527Z,10.90
2023-04-15T19:58:14.667Z,11.02
2023-04-15T20:00:41.657Z,10.95
2023-04-15T20:03:08.628Z,10.97
2023-04-15T20:05:35.928Z,10.81
2023-04-15T20:08:03.436Z,10.57
2023-04-15T20:10:31.943Z,10.67
2023-04-15T20:12:59.302Z,10.61
2023-04-15T20:15:26.727Z,10.57
2023-04-15T20:17:53.833Z,10.60
2023-04-15T20:20:21.091Z,10.53
2023-04-15T20:22:48.611Z,10.52
2023-04-15T20:25:15.506Z,10.44
2023-04-15T20:27:42.552Z,10.49
2023-04-15T20:30:09.813Z,10.45
2023-04-15T20:32:37.071Z,10.44
2023-04-15T20:35:05.370Z,10.56
2023-04-15T20:37:33.810Z,10.44
2023-04-15T20:40:01.550Z,10.40
2023-04-15T20:42:32.193Z,10.02
2023-04-15T20:44:58.999Z,9.98
2023-04-15T20:47:26.376Z,10.00
2023-04-15T20:49:54.227Z,9.78
2023-04-15T20:52:21.428Z,9.75
2023-04-15T20:54:48.302Z,9.64
2023-04-15T20:57:15.301Z,9.76
2023-04-15T20:59:42.137Z,9.65
2023-04-15T21:02:09.253Z,9.55
2023-04-15T21:04:38.246Z,9.63
2023-04-15T21:07:05.322Z,9.35
2023-04-15T21:09:32.380Z,9.28
2023-04-15T21:12:01.907Z,9.25
2023-04-15T21:14:29.829Z,9.25
2023-04-15T21:16:58.275Z,9.19
2023-04-15T21:19:25.485Z,9.31
2023-04-15T21:21:52.392Z,9.30
2023-04-15T21:24:19.318Z,9.27
2023-04-15T21:26:46.071Z,9.14
2023-04-15T21:29:13.230Z,9.23
2023-04-15T21:31:41.042Z,9.14
2023-04-15T21:34:08.519Z,9.19
2023-04-15T21:36:36.180Z,9.11
2023-04-15T21:39:03.816Z,9.19
2023-04-15T21:41:31.323Z,9.11
2023-04-15T21:43:58.434Z,8.98
2023-04-15T21:46:32.864Z,9.06
2023-04-15T21:49:02.547Z,9.06
2023-04-15T21:51:29.461Z,8.98
2023-04-15T21:53:56.855Z,9.04
2023-04-15T21:56:24.888Z,9.06
2023-04-15T21:58:57.201Z,8.99
2023-04-15T22:01:24.773Z,9.01
2023-04-15T22:03:52.553Z,9.09
2023-04-15T22:06:19.864Z,8.98
2023-04-15T22:08:56.158Z,9.06
2023-04-15T22:11:30.636Z,9.03
2023-04-15T22:13:58.912Z,8.93
2023-04-15T22:16:26.554Z,9.02
2023-04-15T22:18:53.828Z,8.86
2023-04-15T22:21:20.947Z,8.82
2023-04-15T22:23:50.143Z,8.96
2023-04-15T22:26:17.248Z,8.90
2023-04-15T22:28:44.253Z,8.82
2023-04-15T22:31:11.590Z,8.77
2023-04-15T22:33:39.202Z,8.80
2023-04-15T22:36:06.531Z,8.78
2023-04-15T22:38:33.570Z,9.04
2023-04-15T22:41:00.843Z,8.73
2023-04-15T22:43:27.955Z,8.86
2023-04-15T22:45:55.329Z,8.89
2023-04-15T22:48:22.878Z,8.80
2023-04-15T22:50:50.162Z,8.85
2023-04-15T22:53:17.984Z,8.88
2023-04-15T22:55:47.248Z,8.75
2023-04-15T22:58:15.186Z,8.92
2023-04-15T23:00:42.470Z,8.68
2023-04-15T23:03:09.710Z,8.75
2023-04-15T23:05:37.077Z,8.74
2023-04-15T23:08:03.997Z,8.87
2023-04-15T23:10:30.881Z,8.84
2023-04-15T23:12:57.903Z,8.89
2023-04-15T23:15:24.993Z,8.87
2023-04-15T23:17:52.126Z,8.79
2023-04-15T23:20:19.411Z,8.84
2023-04-15T23:22:46.492Z,8.73
2023-04-15T23:25:13.666Z,8.76
2023-04-15T23:27:40.552Z,8.81
2023-04-15T23:30:08.079Z,8.96
2023-04-15T23:32:35.243Z,8.94
2023-04-15T23:35:02.298Z,9.01
2023-04-15T23:37:31.839Z,8.86
2023-04-15T23:39:58.684Z,8.76
2023-04-15T23:42:26.217Z,8.72
2023-04-15T23:44:53.228Z,8.74
2023-04-15T23:47:20.032Z,8.44
2023-04-15T23:49:47.318Z,8.42
2023-04-15T23:52:14.191Z,8.56
2023-04-15T23:54:41.312Z,8.36
2023-04-15T23:57:08.402Z,8.36
2023-04-15T23:59:35.195Z,8.32
